createdAt,value
2019-01-29T00:00:31.719Z,0.80
2019-01-29T00:03:00.364Z,0.80
2019-01-29T00:05:28.998Z,0.90
2019-01-29T00:07:57.401Z,0.80
2019-01-29T00:10:25.799Z,1.00
2019-01-29T00:12:54.192Z,1.00
2019-01-29T00:15:27.697Z,1.00
2019-01-29T00:17:56.098Z,1.00
2019-01-29T00:20:24.523Z,1.00
2019-01-29T00:22:52.916Z,1.00
2019-01-29T00:25:21.554Z,1.00
2019-01-29T00:27:50.202Z,1.00
2019-01-29T00:30:18.613Z,1.00
2019-01-29T00:32:47.009Z,0.90
2019-01-29T00:35:15.485Z,0.90
2019-01-29T00:37:44.205Z,0.80
2019-01-29T00:40:14.857Z,0.80
2019-01-29T00:42:43.298Z,0.80
2019-01-29T00:45:14.410Z,0.80
2019-01-29T00:47:42.826Z,0.80
2019-01-29T00:50:13.407Z,0.90
2019-01-29T00:52:42.428Z,1.00
2019-01-29T00:55:13.725Z,1.00
2019-01-29T00:57:42.199Z,1.00
2019-01-29T01:00:19.046Z,1.00
2019-01-29T01:02:55.309Z,1.00
2019-01-29T01:05:23.731Z,1.00
2019-01-29T01:07:52.177Z,1.00
2019-01-29T01:10:21.426Z,1.00
2019-01-29T01:12:50.129Z,1.00
2019-01-29T01:15:18.665Z,1.00
2019-01-29T01:17:47.052Z,1.00
2019-01-29T01:20:17.595Z,1.00
2019-01-29T01:22:51.152Z,1.10
2019-01-29T01:25:17.093Z,1.00
2019-01-29T01:27:45.488Z,1.00
2019-01-29T01:30:16.238Z,1.00
2019-01-29T01:32:44.710Z,1.00
2019-01-29T01:35:13.483Z,1.00
2019-01-29T01:37:42.017Z,1.10
2019-01-29T01:40:13.510Z,1.10
2019-01-29T01:42:41.936Z,1.10
2019-01-29T01:45:11.668Z,1.10
2019-01-29T01:47:40.316Z,1.00
2019-01-29T01:50:11.721Z,1.00
2019-01-29T01:52:40.201Z,1.10
2019-01-29T01:55:14.476Z,1.10
2019-01-29T01:57:42.907Z,1.10
2019-01-29T02:00:14.461Z,1.10
2019-01-29T02:02:43.184Z,1.10
2019-01-29T02:05:11.712Z,1.10
2019-01-29T02:07:40.124Z,1.20
2019-01-29T02:10:17.834Z,1.10
2019-01-29T02:12:46.244Z,1.20
2019-01-29T02:15:16.235Z,1.10
2019-01-29T02:17:44.635Z,1.10
2019-01-29T02:20:15.473Z,1.10
2019-01-29T02:22:43.939Z,1.20
2019-01-29T02:25:12.398Z,1.20
2019-01-29T02:27:41.100Z,1.20
2019-01-29T02:30:14.886Z,1.10
2019-01-29T02:32:43.330Z,1.00
2019-01-29T02:35:11.758Z,1.00
2019-01-29T02:37:40.187Z,1.00
2019-01-29T02:40:18.049Z,1.00
2019-01-29T02:42:46.547Z,1.00
2019-01-29T02:45:16.386Z,1.00
2019-01-29T02:47:44.792Z,1.10
2019-01-29T02:50:17.346Z,1.00
2019-01-29T02:52:45.738Z,1.10
2019-01-29T02:55:15.016Z,1.00
2019-01-29T02:57:43.493Z,1.00
2019-01-29T03:00:20.519Z,1.00
2019-01-29T03:02:48.969Z,1.10
2019-01-29T03:05:18.202Z,1.10
2019-01-29T03:07:47.060Z,1.10
2019-01-29T03:10:18.029Z,1.10
2019-01-29T03:12:46.417Z,1.10
2019-01-29T03:15:24.238Z,1.10
2019-01-29T03:17:52.674Z,1.10
2019-01-29T03:20:21.481Z,1.10
2019-01-29T03:22:50.187Z,1.10
2019-01-29T03:25:18.718Z,1.20
2019-01-29T03:27:47.127Z,1.20
2019-01-29T03:30:22.484Z,1.10
2019-01-29T03:32:50.924Z,1.20
2019-01-29T03:35:19.308Z,1.20
2019-01-29T03:37:47.785Z,1.10
2019-01-29T03:40:24.349Z,1.20
2019-01-29T03:42:52.894Z,1.10
2019-01-29T03:45:21.725Z,1.10
2019-01-29T03:47:50.193Z,1.10
2019-01-29T03:50:20.725Z,1.10
2019-01-29T03:52:49.533Z,1.20
2019-01-29T03:55:18.223Z,1.10
2019-01-29T03:57:46.614Z,1.10
2019-01-29T04:00:17.922Z,1.10
2019-01-29T04:02:46.480Z,1.10
2019-01-29T04:05:14.865Z,1.10
2019-01-29T04:07:43.595Z,1.10
2019-01-29T04:10:15.953Z,1.20
2019-01-29T04:12:45.780Z,1.10
2019-01-29T04:15:16.618Z,1.10
2019-01-29T04:17:45.273Z,1.10
2019-01-29T04:20:16.000Z,1.20
2019-01-29T04:22:45.845Z,1.10
2019-01-29T04:25:14.913Z,1.20
2019-01-29T04:27:43.637Z,1.10
2019-01-29T04:30:19.968Z,1.10
2019-01-29T04:32:48.357Z,1.20
2019-01-29T04:35:17.085Z,1.20
2019-01-29T04:37:45.481Z,1.10
2019-01-29T04:40:15.952Z,1.20
2019-01-29T04:42:44.389Z,1.10
2019-01-29T04:45:14.741Z,1.10
2019-01-29T04:47:43.202Z,1.10
2019-01-29T04:50:14.205Z,1.20
2019-01-29T04:52:42.610Z,1.10
2019-01-29T04:55:13.750Z,1.10
2019-01-29T04:57:42.333Z,1.10
2019-01-29T05:00:14.050Z,1.00
2019-01-29T05:02:42.691Z,1.10
2019-01-29T05:05:11.687Z,1.10
2019-01-29T05:07:40.081Z,1.10
2019-01-29T05:10:11.513Z,1.20
2019-01-29T05:12:40.163Z,1.10
2019-01-29T05:15:11.694Z,1.10
2019-01-29T05:17:40.329Z,1.10
2019-01-29T05:20:11.602Z,1.00
2019-01-29T05:22:40.227Z,0.90
2019-01-29T05:25:11.106Z,0.80
2019-01-29T05:27:39.584Z,0.80
2019-01-29T05:30:11.287Z,0.80
2019-01-29T05:32:39.754Z,0.70
2019-01-29T05:35:09.648Z,0.70
2019-01-29T05:37:38.310Z,0.70
2019-01-29T05:40:09.797Z,0.60
2019-01-29T05:42:38.190Z,0.60
2019-01-29T05:45:10.023Z,0.70
2019-01-29T05:47:38.428Z,0.70
2019-01-29T05:50:09.966Z,0.70
2019-01-29T05:52:38.394Z,0.70
2019-01-29T05:55:08.672Z,0.70
2019-01-29T05:57:37.194Z,0.70
2019-01-29T06:00:08.735Z,0.70
2019-01-29T06:02:37.142Z,0.70
2019-01-29T06:05:08.991Z,0.60
2019-01-29T06:07:37.446Z,0.60
2019-01-29T06:10:09.751Z,0.60
2019-01-29T06:12:38.373Z,0.60
2019-01-29T06:15:18.444Z,0.60
2019-01-29T06:17:47.100Z,0.60
2019-01-29T06:20:18.578Z,0.60
2019-01-29T06:22:47.455Z,0.60
2019-01-29T06:25:15.903Z,0.60
2019-01-29T06:27:44.370Z,0.60
2019-01-29T06:30:15.473Z,0.60
2019-01-29T06:32:43.958Z,0.60
2019-01-29T06:35:14.597Z,0.60
2019-01-29T06:37:43.007Z,0.60
2019-01-29T06:40:14.413Z,0.60
2019-01-29T06:42:42.820Z,0.60
2019-01-29T06:45:16.773Z,0.50
2019-01-29T06:47:45.326Z,0.60
2019-01-29T06:50:16.273Z,0.60
2019-01-29T06:52:44.729Z,0.60
2019-01-29T06:55:15.871Z,0.60
2019-01-29T06:57:44.394Z,0.60
2019-01-29T07:00:18.720Z,0.60
2019-01-29T07:02:47.694Z,0.60
2019-01-29T07:05:16.167Z,0.50
2019-01-29T07:07:44.560Z,0.50
2019-01-29T07:10:16.310Z,0.50
2019-01-29T07:12:44.885Z,0.50
2019-01-29T07:15:17.669Z,0.50
2019-01-29T07:17:47.462Z,0.50
2019-01-29T07:20:16.103Z,0.50
2019-01-29T07:22:44.742Z,0.50
2019-01-29T07:25:13.286Z,0.60
2019-01-29T07:27:41.682Z,0.60
2019-01-29T07:30:13.388Z,0.60
2019-01-29T07:32:41.793Z,0.60
2019-01-29T07:35:10.271Z,0.60
2019-01-29T07:37:38.674Z,0.60
2019-01-29T07:40:09.646Z,0.60
2019-01-29T07:42:38.090Z,0.70
2019-01-29T07:45:10.144Z,0.70
2019-01-29T07:47:38.545Z,0.70
2019-01-29T07:50:09.621Z,0.70
2019-01-29T07:52:38.089Z,0.70
2019-01-29T07:55:08.866Z,0.70
2019-01-29T07:57:37.261Z,0.80
2019-01-29T08:00:11.704Z,0.80
2019-01-29T08:02:40.120Z,0.80
2019-01-29T08:05:10.854Z,0.80
2019-01-29T08:07:39.251Z,0.80
2019-01-29T08:10:11.298Z,0.90
2019-01-29T08:12:39.686Z,0.90
2019-01-29T08:15:13.613Z,0.90
2019-01-29T08:17:42.254Z,1.00
2019-01-29T08:20:12.706Z,1.00
2019-01-29T08:22:41.349Z,1.00
2019-01-29T08:25:10.716Z,1.00
2019-01-29T08:27:39.226Z,1.00
2019-01-29T08:30:10.982Z,1.10
2019-01-29T08:32:39.641Z,1.10
2019-01-29T08:35:11.081Z,1.10
2019-01-29T08:37:39.494Z,1.20
2019-01-29T08:40:10.424Z,1.20
2019-01-29T08:42:38.825Z,1.40
2019-01-29T08:45:10.424Z,1.40
2019-01-29T08:47:38.813Z,1.50
2019-01-29T08:50:16.358Z,1.60
2019-01-29T08:52:44.996Z,1.60
2019-01-29T08:55:13.449Z,1.70
2019-01-29T08:57:41.854Z,1.80
2019-01-29T09:00:17.353Z,1.80
2019-01-29T09:02:47.846Z,1.80
2019-01-29T09:05:16.477Z,1.80
2019-01-29T09:07:44.875Z,1.80
2019-01-29T09:10:17.938Z,1.80
2019-01-29T09:12:46.598Z,1.80
2019-01-29T09:15:17.509Z,1.80
2019-01-29T09:17:46.409Z,1.90
2019-01-29T09:20:22.038Z,1.80
2019-01-29T09:22:50.674Z,1.80
2019-01-29T09:25:22.434Z,1.80
2019-01-29T09:27:49.323Z,1.90
2019-01-29T09:30:20.044Z,2.00
2019-01-29T09:32:48.846Z,2.10
2019-01-29T09:35:17.312Z,2.00
2019-01-29T09:37:45.701Z,2.00
2019-01-29T09:40:22.344Z,2.00
2019-01-29T09:42:51.042Z,2.00
2019-01-29T09:45:20.439Z,2.10
2019-01-29T09:47:49.082Z,2.20
2019-01-29T09:50:22.695Z,2.20
2019-01-29T09:52:51.625Z,2.20
2019-01-29T09:55:29.017Z,2.40
2019-01-29T09:57:52.154Z,2.50
2019-01-29T10:00:29.687Z,2.50
2019-01-29T10:02:58.176Z,2.50
2019-01-29T10:05:29.591Z,2.70
2019-01-29T10:07:58.282Z,2.70
2019-01-29T10:10:26.692Z,2.70
2019-01-29T10:12:55.744Z,2.90
2019-01-29T10:15:29.674Z,2.80
2019-01-29T10:17:58.299Z,2.90
2019-01-29T10:20:27.862Z,2.80
2019-01-29T10:22:56.521Z,2.80
2019-01-29T10:25:25.016Z,2.90
2019-01-29T10:27:53.428Z,2.80
2019-01-29T10:30:24.559Z,2.80
2019-01-29T10:32:53.031Z,2.70
2019-01-29T10:35:23.169Z,2.70
2019-01-29T10:37:51.637Z,2.80
2019-01-29T10:40:25.853Z,2.80
2019-01-29T10:42:55.702Z,2.90
2019-01-29T10:45:25.927Z,2.90
2019-01-29T10:47:54.338Z,2.70
2019-01-29T10:50:26.065Z,2.80
2019-01-29T10:52:54.705Z,3.00
2019-01-29T10:55:23.245Z,3.00
2019-01-29T10:57:51.799Z,3.00
2019-01-29T11:00:24.164Z,3.10
2019-01-29T11:02:53.094Z,3.50
2019-01-29T11:05:23.161Z,3.20
2019-01-29T11:07:51.546Z,3.50
2019-01-29T11:10:40.822Z,3.30
2019-01-29T11:13:09.243Z,3.10
2019-01-29T11:15:39.782Z,3.40
2019-01-29T11:18:10.884Z,3.80
2019-01-29T11:20:39.362Z,3.60
2019-01-29T11:23:07.856Z,3.80
2019-01-29T11:25:36.419Z,3.70
2019-01-29T11:28:05.252Z,3.70
2019-01-29T11:30:33.911Z,3.80
2019-01-29T11:33:02.885Z,4.10
2019-01-29T11:35:31.288Z,4.10
2019-01-29T11:37:59.807Z,4.80
2019-01-29T11:40:31.269Z,5.60
2019-01-29T11:43:00.175Z,7.10
2019-01-29T11:45:43.167Z,7.60
2019-01-29T11:48:11.595Z,8.60
2019-01-29T11:50:40.166Z,7.70
2019-01-29T11:53:08.642Z,8.30
2019-01-29T11:55:37.146Z,8.40
2019-01-29T11:58:06.087Z,8.20
2019-01-29T12:00:40.924Z,8.70
2019-01-29T12:03:09.409Z,8.80
2019-01-29T12:05:37.822Z,8.20
2019-01-29T12:08:06.845Z,8.10
2019-01-29T12:10:35.511Z,7.20
2019-01-29T12:13:05.007Z,7.20
2019-01-29T12:15:33.472Z,6.50
2019-01-29T12:18:01.877Z,6.20
2019-01-29T12:20:30.287Z,6.60
2019-01-29T12:22:58.883Z,7.10
2019-01-29T12:25:27.389Z,7.40
2019-01-29T12:27:56.043Z,5.80
2019-01-29T12:30:26.956Z,5.30
2019-01-29T12:32:56.914Z,5.20
2019-01-29T12:35:25.570Z,5.40
2019-01-29T12:37:53.979Z,5.10
2019-01-29T12:40:22.465Z,4.90
2019-01-29T12:42:50.961Z,4.60
2019-01-29T12:45:19.875Z,4.70
2019-01-29T12:47:48.510Z,4.30
2019-01-29T12:50:28.169Z,4.60
2019-01-29T12:53:00.875Z,5.40
2019-01-29T12:55:29.355Z,5.70
2019-01-29T12:57:57.903Z,5.80
2019-01-29T13:00:28.010Z,5.60
2019-01-29T13:02:56.441Z,5.50
2019-01-29T13:05:24.914Z,5.70
2019-01-29T13:07:53.334Z,5.70
2019-01-29T13:10:23.380Z,6.20
2019-01-29T13:12:52.143Z,5.90
2019-01-29T13:15:34.414Z,5.90
2019-01-29T13:18:03.060Z,5.30
2019-01-29T13:20:31.591Z,5.10
2019-01-29T13:22:59.991Z,5.40
2019-01-29T13:25:28.642Z,5.10
2019-01-29T13:27:57.136Z,5.00
2019-01-29T13:30:33.797Z,4.90
2019-01-29T13:33:02.276Z,4.70
2019-01-29T13:35:35.487Z,4.40
2019-01-29T13:38:04.442Z,4.40
2019-01-29T13:40:32.863Z,4.00
2019-01-29T13:43:01.264Z,4.20
2019-01-29T13:45:29.723Z,4.50
2019-01-29T13:47:58.387Z,4.50
2019-01-29T13:50:35.983Z,4.60
2019-01-29T13:53:05.130Z,4.60
2019-01-29T13:55:33.628Z,4.30
2019-01-29T13:58:02.156Z,4.30
2019-01-29T14:00:32.821Z,4.30
2019-01-29T14:03:02.001Z,4.20
2019-01-29T14:05:30.833Z,4.20
2019-01-29T14:07:59.286Z,4.00
2019-01-29T14:10:28.162Z,4.30
2019-01-29T14:12:56.551Z,4.20
2019-01-29T14:15:27.454Z,4.30
2019-01-29T14:17:55.933Z,4.30
2019-01-29T14:20:24.552Z,4.30
2019-01-29T14:22:52.942Z,4.40
2019-01-29T14:25:21.331Z,4.20
2019-01-29T14:27:49.746Z,3.80
2019-01-29T14:30:28.152Z,3.60
2019-01-29T14:32:56.778Z,3.40
2019-01-29T14:35:25.166Z,3.30
2019-01-29T14:38:11.666Z,3.30
2019-01-29T14:40:40.228Z,3.20
2019-01-29T14:43:12.026Z,3.20
2019-01-29T14:45:40.649Z,3.10
2019-01-29T14:48:09.073Z,3.00
2019-01-29T14:50:37.461Z,3.00
2019-01-29T14:53:05.869Z,2.90
2019-01-29T14:55:34.266Z,2.90
2019-01-29T14:58:02.891Z,3.00
2019-01-29T15:00:34.026Z,2.80
2019-01-29T15:03:02.422Z,2.80
2019-01-29T15:05:30.816Z,2.70
2019-01-29T15:07:59.350Z,2.70
2019-01-29T15:10:31.940Z,2.70
2019-01-29T15:13:00.405Z,2.70
2019-01-29T15:15:37.889Z,2.60
2019-01-29T15:18:14.259Z,2.60
2019-01-29T15:20:42.687Z,2.50
2019-01-29T15:23:11.435Z,2.40
2019-01-29T15:25:39.826Z,2.30
2019-01-29T15:28:08.286Z,2.30
2019-01-29T15:30:36.830Z,2.30
2019-01-29T15:33:05.858Z,2.30
2019-01-29T15:35:34.246Z,2.20
2019-01-29T15:38:02.642Z,2.10
2019-01-29T15:40:31.030Z,2.00
2019-01-29T15:42:59.425Z,1.90
2019-01-29T15:45:28.479Z,1.90
2019-01-29T15:47:56.856Z,1.90
2019-01-29T15:50:31.061Z,1.80
2019-01-29T15:52:59.893Z,1.80
2019-01-29T15:55:28.281Z,1.70
2019-01-29T15:57:56.753Z,1.70
2019-01-29T16:00:33.115Z,1.60
2019-01-29T16:03:01.670Z,1.50
2019-01-29T16:05:38.830Z,1.50
2019-01-29T16:08:12.429Z,1.40
2019-01-29T16:10:42.452Z,1.30
2019-01-29T16:13:10.849Z,1.10
2019-01-29T16:15:39.817Z,1.00
2019-01-29T16:18:08.613Z,0.90
2019-01-29T16:20:37.001Z,0.90
2019-01-29T16:23:05.737Z,0.90
2019-01-29T16:25:35.920Z,0.90
2019-01-29T16:28:04.385Z,0.90
2019-01-29T16:30:38.393Z,0.90
2019-01-29T16:33:07.241Z,0.90
2019-01-29T16:35:38.058Z,1.00
2019-01-29T16:38:08.331Z,1.00
2019-01-29T16:40:39.980Z,1.10
2019-01-29T16:43:08.690Z,1.00
2019-01-29T16:45:38.022Z,1.00
2019-01-29T16:48:07.857Z,0.90
2019-01-29T16:50:36.314Z,0.90
2019-01-29T16:53:06.353Z,0.90
2019-01-29T16:55:34.982Z,1.00
2019-01-29T16:58:03.919Z,1.10
2019-01-29T17:00:33.682Z,1.20
2019-01-29T17:03:02.151Z,1.40
2019-01-29T17:05:31.005Z,1.50
2019-01-29T17:08:00.040Z,1.50
2019-01-29T17:10:30.674Z,1.60
2019-01-29T17:12:59.310Z,1.60
2019-01-29T17:15:35.927Z,1.60
2019-01-29T17:18:06.443Z,1.70
2019-01-29T17:20:40.783Z,1.60
2019-01-29T17:23:10.582Z,1.60
2019-01-29T17:25:39.279Z,1.70
2019-01-29T17:28:07.685Z,1.60
2019-01-29T17:30:44.301Z,1.60
2019-01-29T17:33:15.612Z,1.50
2019-01-29T17:35:44.101Z,1.40
2019-01-29T17:38:14.382Z,1.40
2019-01-29T17:40:44.292Z,1.30
2019-01-29T17:43:13.054Z,1.30
2019-01-29T17:45:49.393Z,1.20
2019-01-29T17:48:18.022Z,1.10
2019-01-29T17:50:47.054Z,1.10
2019-01-29T17:53:15.688Z,1.00
2019-01-29T17:55:46.677Z,1.00
2019-01-29T17:58:15.796Z,0.90
2019-01-29T18:00:46.161Z,0.90
2019-01-29T18:03:14.559Z,0.80
2019-01-29T18:05:43.201Z,0.70
2019-01-29T18:08:11.885Z,0.60
2019-01-29T18:10:40.306Z,0.60
2019-01-29T18:13:08.957Z,0.60
2019-01-29T18:15:37.434Z,0.60
2019-01-29T18:18:06.201Z,0.60
2019-01-29T18:20:34.874Z,0.60
2019-01-29T18:23:05.751Z,0.60
2019-01-29T18:25:33.611Z,0.60
2019-01-29T18:28:02.069Z,0.60
2019-01-29T18:30:33.066Z,0.50
2019-01-29T18:33:01.466Z,0.50
2019-01-29T18:35:30.089Z,0.50
2019-01-29T18:37:58.802Z,0.40
2019-01-29T18:40:41.899Z,0.40
2019-01-29T18:43:10.315Z,0.40
2019-01-29T18:45:38.722Z,0.40
2019-01-29T18:48:07.335Z,0.40
2019-01-29T18:50:35.726Z,0.40
2019-01-29T18:53:08.998Z,0.30
2019-01-29T18:55:37.621Z,0.30
2019-01-29T18:58:11.883Z,0.30
2019-01-29T19:00:36.265Z,0.20
2019-01-29T19:03:05.099Z,0.10
2019-01-29T19:05:33.488Z,0.10
2019-01-29T19:08:01.903Z,0.10
2019-01-29T19:10:30.342Z,0.10
2019-01-29T19:12:58.723Z,0.10
2019-01-29T19:15:27.681Z,0.00
2019-01-29T19:17:56.078Z,0.10
2019-01-29T19:20:27.925Z,0.00
2019-01-29T19:22:56.321Z,0.10
2019-01-29T19:25:24.721Z,0.10
2019-01-29T19:27:53.169Z,0.20
2019-01-29T19:30:27.400Z,0.10
2019-01-29T19:32:55.868Z,0.00
2019-01-29T19:35:24.321Z,0.00
2019-01-29T19:37:52.945Z,0.00
2019-01-29T19:40:21.490Z,0.00
2019-01-29T19:42:50.117Z,0.10
2019-01-29T19:45:23.598Z,0.00
2019-01-29T19:47:51.984Z,0.00
2019-01-29T19:50:22.662Z,0.00
2019-01-29T19:52:51.890Z,0.00
2019-01-29T19:55:20.616Z,0.00
2019-01-29T19:57:49.081Z,0.10
2019-01-29T20:00:29.128Z,0.10
2019-01-29T20:02:57.586Z,0.20
2019-01-29T20:05:26.011Z,0.20
2019-01-29T20:07:54.409Z,0.10
2019-01-29T20:10:22.977Z,0.20
2019-01-29T20:12:51.702Z,0.20
2019-01-29T20:15:22.529Z,0.20
2019-01-29T20:17:52.161Z,0.10
2019-01-29T20:20:23.413Z,0.10
2019-01-29T20:22:51.801Z,0.10
2019-01-29T20:25:20.189Z,0.10
2019-01-29T20:27:48.590Z,0.00
2019-01-29T20:30:20.190Z,0.10
2019-01-29T20:32:53.393Z,0.20
2019-01-29T20:35:18.744Z,0.20
2019-01-29T20:37:47.141Z,0.10
2019-01-29T20:40:17.788Z,0.10
2019-01-29T20:42:46.194Z,0.10
2019-01-29T20:45:15.622Z,0.10
2019-01-29T20:47:44.261Z,0.10
2019-01-29T20:50:27.445Z,0.10
2019-01-29T20:52:55.846Z,0.10
2019-01-29T20:55:24.241Z,0.10
2019-01-29T20:57:52.649Z,0.10
2019-01-29T21:00:23.991Z,0.10
2019-01-29T21:02:52.387Z,0.10
2019-01-29T21:05:20.789Z,0.10
2019-01-29T21:07:50.052Z,0.10
2019-01-29T21:10:23.027Z,0.10
2019-01-29T21:12:51.542Z,0.10
2019-01-29T21:15:21.981Z,0.00
2019-01-29T21:17:50.513Z,0.00
2019-01-29T21:20:21.260Z,0.00
2019-01-29T21:22:49.718Z,0.00
2019-01-29T21:25:18.115Z,0.00
2019-01-29T21:27:46.515Z,0.10
2019-01-29T21:30:26.448Z,0.10
2019-01-29T21:32:54.857Z,0.20
2019-01-29T21:35:23.250Z,0.10
2019-01-29T21:37:51.783Z,0.10
2019-01-29T21:40:20.529Z,0.10
2019-01-29T21:42:48.996Z,0.10
2019-01-29T21:45:19.437Z,0.10
2019-01-29T21:47:48.673Z,0.20
2019-01-29T21:50:22.678Z,0.10
2019-01-29T21:52:51.079Z,0.10
2019-01-29T21:55:19.949Z,0.10
2019-01-29T21:57:48.350Z,0.10
2019-01-29T22:00:25.849Z,0.20
2019-01-29T22:02:54.340Z,0.20
2019-01-29T22:05:22.811Z,0.20
2019-01-29T22:07:51.211Z,0.20
2019-01-29T22:10:19.617Z,0.20
2019-01-29T22:12:48.010Z,0.20
2019-01-29T22:15:19.027Z,0.10
2019-01-29T22:17:47.648Z,0.10
2019-01-29T22:20:23.094Z,0.10
2019-01-29T22:22:51.485Z,0.10
2019-01-29T22:25:21.226Z,0.10
2019-01-29T22:27:49.885Z,0.10
2019-01-29T22:30:27.061Z,0.10
2019-01-29T22:32:55.534Z,0.10
2019-01-29T22:35:24.024Z,0.10
2019-01-29T22:37:52.457Z,0.00
2019-01-29T22:40:25.977Z,0.00
2019-01-29T22:42:54.440Z,0.10
2019-01-29T22:45:23.057Z,0.00
2019-01-29T22:47:51.452Z,0.10
2019-01-29T22:50:24.821Z,0.00
2019-01-29T22:52:53.216Z,-0.10
2019-01-29T22:55:21.893Z,-0.10
2019-01-29T22:57:50.281Z,-0.10
2019-01-29T23:00:52.258Z,-0.10
2019-01-29T23:03:29.464Z,-0.20
2019-01-29T23:06:03.617Z,-0.20
2019-01-29T23:08:32.013Z,-0.20
2019-01-29T23:11:00.671Z,-0.20
2019-01-29T23:13:29.373Z,-0.20
2019-01-29T23:15:58.036Z,-0.30
2019-01-29T23:18:26.657Z,-0.30
2019-01-29T23:20:56.951Z,-0.30
2019-01-29T23:23:25.386Z,-0.30
2019-01-29T23:25:54.027Z,-0.20
2019-01-29T23:28:22.429Z,-0.20
2019-01-29T23:30:50.825Z,-0.10
2019-01-29T23:33:19.221Z,-0.20
2019-01-29T23:35:47.628Z,-0.30
2019-01-29T23:38:16.505Z,-0.30
2019-01-29T23:40:44.910Z,-0.20
2019-01-29T23:43:13.317Z,-0.30
2019-01-29T23:45:41.949Z,-0.30
2019-01-29T23:48:10.358Z,-0.20
2019-01-29T23:50:38.769Z,-0.30
2019-01-29T23:53:07.194Z,-0.20
2019-01-29T23:55:35.594Z,-0.30
2019-01-29T23:58:05.093Z,-0.30
